Bighill, Texas
Current Conditions -  °F | °C
As of 10:55 AM on Wednesday 22 Oct 2014 (Local Time) from KLXY Reporting Station
Clear Clear  
Wind Chill: 74°   Ceiling: Unl
Heat Index: 74°   Visibility: 10mi
Dew Point: 63°   Wind: 7mph
Humidity: 68%   Direction: 110°ESE
Pressure: 30.15"   Gusts: NA
Location:  31.4027°N, 96.4988°W
Report Text: KLXY 221555Z AUTO 11006KT 10SM CLR 23/17 A3015 RMK AO2 T02330170
Loading
Personal Weather Stations






























Interactive Weather Map
Tropical Storm Tracking
New forecast layout! Learn more

10-Day Weather Forecast

Advertisements
Track Severe Weather on mobile